Time;durP1;ratioP1;P1;durP2;ratioP2;P2;SDS_P1;SDS_P2;PMS_P1;PMS_P2;Temp;Humidity;BMP_temperature;BMP_pressure;BME280_temperature;BME280_humidity;BME280_pressure;Samples;Min_cycle;Max_cycle;Signal;HPM_P1;HPM_P2
2021/06/15 00:02:17;;;;;;;19.58;6.22;;;16.50;80.30;;;;;;5075985;28;20206;-88
2021/06/15 00:04:42;;;;;;;17.70;5.78;;;16.50;80.70;;;;;;5093861;28;20247;-89
2021/06/15 00:07:08;;;;;;;18.02;6.10;;;16.50;80.10;;;;;;5075848;28;20170;-88
2021/06/15 00:09:34;;;;;;;17.23;6.38;;;16.50;80.20;;;;;;5075474;28;20194;-89
2021/06/15 00:11:59;;;;;;;15.45;5.40;;;16.60;80.10;;;;;;5093879;28;20191;-88
2021/06/15 00:14:26;;;;;;;14.05;6.63;;;16.50;80.20;;;;;;5075702;28;20210;-89
2021/06/15 00:16:51;;;;;;;14.88;5.95;;;16.50;79.70;;;;;;5075733;28;20205;-89
2021/06/15 00:19:17;;;;;;;16.83;5.03;;;16.40;80.10;;;;;;5094467;28;20167;-89
2021/06/15 00:21:43;;;;;;;23.40;6.13;;;16.50;80.00;;;;;;5093724;28;20695;-89
2021/06/15 00:24:09;;;;;;;18.10;5.60;;;16.40;80.20;;;;;;5093758;28;20187;-89
2021/06/15 00:26:34;;;;;;;12.68;5.40;;;16.50;79.90;;;;;;5093682;28;20193;-89
2021/06/15 00:29:00;;;;;;;18.00;5.63;;;16.50;79.40;;;;;;5117892;22;20207;-92
2021/06/15 00:31:27;;;;;;;20.23;5.97;;;16.40;79.70;;;;;;5097690;28;20197;-92
2021/06/15 00:33:55;;;;;;;16.05;5.70;;;16.50;79.50;;;;;;5080874;28;20167;-93
2021/06/15 00:36:20;;;;;;;15.57;5.53;;;16.30;80.10;;;;;;5081482;28;20171;-93
2021/06/15 00:38:46;;;;;;;21.08;5.80;;;16.30;80.10;;;;;;5081331;28;20175;-93
2021/06/15 00:41:12;;;;;;;17.33;4.70;;;16.20;80.10;;;;;;5081448;28;20189;-95
2021/06/15 00:43:38;;;;;;;17.00;4.88;;;16.20;80.60;;;;;;5081593;28;20156;-94
2021/06/15 00:46:04;;;;;;;15.57;4.70;;;16.10;80.80;;;;;;5080998;28;20171;-95
2021/06/15 00:48:35;;;;;;;17.25;4.68;;;16.10;81.10;;;;;;5077352;28;20249;-95
2021/06/15 00:51:02;;;;;;;16.98;4.45;;;16.10;81.00;;;;;;5078903;28;21275;-94
2021/06/15 00:53:29;;;;;;;16.88;4.35;;;16.10;81.20;;;;;;5077448;28;20171;-95
2021/06/15 00:55:55;;;;;;;19.40;4.45;;;16.00;81.50;;;;;;5079394;28;20171;-94
2021/06/15 00:58:22;;;;;;;18.58;4.80;;;15.90;81.70;;;;;;5079561;28;20200;-94
2021/06/15 01:00:48;;;;;;;12.63;4.03;;;15.90;81.50;;;;;;5082801;28;20170;-94
2021/06/15 01:03:15;;;;;;;14.57;4.40;;;16.00;81.10;;;;;;5083017;28;20179;-94
2021/06/15 01:05:41;;;;;;;17.73;4.03;;;16.10;80.80;;;;;;5083227;28;20202;-94
2021/06/15 01:08:40;;;;;;;18.52;4.07;;;16.10;80.00;;;;;;5084130;28;20271;-94
2021/06/15 01:11:39;;;;;;;18.83;4.95;;;16.10;80.40;;;;;;5083354;28;20539;-92
2021/06/15 01:14:21;;;;;;;17.88;4.75;;;16.10;80.40;;;;;;5084204;28;20171;-92
2021/06/15 01:17:03;;;;;;;19.67;4.43;;;16.00;80.60;;;;;;5083604;28;20179;-92
2021/06/15 01:19:50;;;;;;;13.90;4.00;;;16.00;80.60;;;;;;5083960;28;20183;-92
2021/06/15 01:22:44;;;;;;;16.50;4.28;;;16.00;80.50;;;;;;5083389;28;20206;-92
2021/06/15 01:25:48;;;;;;;16.73;4.05;;;16.00;80.30;;;;;;5082644;28;20202;-92
2021/06/15 01:28:28;;;;;;;17.10;4.32;;;16.00;80.00;;;;;;5082276;28;20215;-93
2021/06/15 01:31:13;;;;;;;13.45;4.30;;;16.00;80.20;;;;;;5082946;28;20228;-94
2021/06/15 01:33:43;;;;;;;11.45;3.42;;;15.90;80.20;;;;;;5082030;28;20170;-94
2021/06/15 01:36:13;;;;;;;10.48;3.08;;;15.80;80.40;;;;;;5083560;28;20213;-93
2021/06/15 01:38:47;;;;;;;16.05;3.83;;;15.80;80.00;;;;;;5083553;28;20179;-92
2021/06/15 01:41:22;;;;;;;14.18;3.95;;;15.70;80.00;;;;;;5082599;28;20177;-92
2021/06/15 01:43:51;;;;;;;11.95;3.80;;;15.70;80.10;;;;;;5081527;28;20183;-93
2021/06/15 01:46:24;;;;;;;15.63;4.05;;;15.70;80.10;;;;;;5082538;28;20175;-92
2021/06/15 01:48:59;;;;;;;17.48;4.38;;;15.70;80.20;;;;;;5081345;28;20211;-92
2021/06/15 01:51:26;;;;;;;14.75;5.28;;;15.60;80.60;;;;;;5080884;28;20233;-92
2021/06/15 01:53:58;;;;;;;20.13;4.53;;;15.60;80.90;;;;;;5077941;28;20186;-92
2021/06/15 01:56:29;;;;;;;14.97;3.67;;;15.50;80.90;;;;;;5078228;28;20176;-92
2021/06/15 01:58:57;;;;;;;15.90;3.60;;;15.50;80.70;;;;;;5080180;28;20194;-94
2021/06/15 02:01:26;;;;;;;15.63;3.80;;;15.40;80.80;;;;;;5081527;28;20251;-95
2021/06/15 02:03:53;;;;;;;14.55;3.78;;;15.30;81.10;;;;;;5080422;28;20183;-95
2021/06/15 02:06:21;;;;;;;12.03;3.53;;;15.30;81.10;;;;;;5080792;28;20175;-94
2021/06/15 02:08:50;;;;;;;13.50;3.57;;;15.40;81.00;;;;;;5081043;28;20210;-94
2021/06/15 02:11:19;;;;;;;16.53;3.67;;;15.30;80.70;;;;;;5080066;28;20183;-95
2021/06/15 02:13:46;;;;;;;16.20;3.77;;;15.30;80.90;;;;;;5079851;28;20186;-94
2021/06/15 02:16:15;;;;;;;15.37;4.23;;;15.30;80.60;;;;;;5079346;28;20171;-94
2021/06/15 02:18:44;;;;;;;14.67;3.97;;;15.30;80.80;;;;;;5097745;28;20175;-95
2021/06/15 02:21:13;;;;;;;18.03;4.33;;;15.30;80.50;;;;;;5079306;28;20615;-94
2021/06/15 02:23:42;;;;;;;15.90;3.67;;;15.30;80.60;;;;;;5079121;28;20175;-94
2021/06/15 02:26:11;;;;;;;14.85;3.88;;;15.20;80.50;;;;;;5079974;28;20175;-94
2021/06/15 02:28:38;;;;;;;16.53;3.77;;;15.20;80.40;;;;;;5079643;28;20241;-94
2021/06/15 02:31:08;;;;;;;12.90;3.30;;;15.20;80.50;;;;;;5077363;28;20185;-93
2021/06/15 02:33:39;;;;;;;18.30;4.40;;;15.20;80.50;;;;;;5079054;28;20210;-94
2021/06/15 02:36:10;;;;;;;14.27;4.13;;;15.20;80.70;;;;;;5076900;28;20167;-94
2021/06/15 02:38:46;;;;;;;11.03;2.83;;;15.20;80.80;;;;;;5076526;28;20199;-94
2021/06/15 02:41:13;;;;;;;12.07;3.10;;;15.10;80.80;;;;;;5078539;28;20185;-94
2021/06/15 02:43:41;;;;;;;17.10;3.03;;;15.10;81.00;;;;;;5077834;28;20163;-94
2021/06/15 02:46:09;;;;;;;13.97;3.53;;;15.00;81.20;;;;;;5078592;28;20202;-94
2021/06/15 02:48:37;;;;;;;17.63;3.37;;;15.10;81.20;;;;;;5076862;28;20218;-94
2021/06/15 02:51:08;;;;;;;13.23;3.03;;;15.00;81.00;;;;;;5077226;28;20168;-94
2021/06/15 02:53:44;;;;;;;15.67;3.43;;;15.10;81.10;;;;;;5078423;28;20175;-94
2021/06/15 02:56:17;;;;;;;17.80;3.40;;;15.00;81.20;;;;;;5078568;28;20167;-94
2021/06/15 02:58:45;;;;;;;15.13;3.77;;;15.00;81.40;;;;;;5079646;28;20179;-94
2021/06/15 03:01:10;;;;;;;18.17;3.97;;;15.00;81.20;;;;;;5079234;28;20197;-94
2021/06/15 03:03:39;;;;;;;15.50;3.47;;;15.00;81.30;;;;;;5078400;28;20288;-94
2021/06/15 03:06:06;;;;;;;16.43;3.20;;;15.00;81.00;;;;;;5079070;28;20179;-94
2021/06/15 03:08:38;;;;;;;10.60;3.43;;;15.00;81.00;;;;;;5078301;28;20203;-94
2021/06/15 03:11:05;;;;;;;17.27;3.67;;;15.00;80.50;;;;;;5078085;28;20175;-95
2021/06/15 03:13:44;;;;;;;11.07;2.93;;;15.00;80.70;;;;;;5077617;28;20162;-94
2021/06/15 03:16:16;;;;;;;13.53;3.27;;;15.10;80.70;;;;;;5079000;28;20183;-94
2021/06/15 03:19:04;;;;;;;13.20;3.60;;;15.00;80.60;;;;;;5078049;28;20195;-94
2021/06/15 03:21:33;;;;;;;18.70;4.20;;;15.00;80.60;;;;;;5078900;28;20183;-94
2021/06/15 03:24:02;;;;;;;13.93;3.60;;;15.00;80.50;;;;;;5080604;28;20210;-94
2021/06/15 03:26:40;;;;;;;10.33;2.50;;;15.00;80.60;;;;;;5079898;28;20151;-94
2021/06/15 03:29:10;;;;;;;13.87;3.73;;;15.00;80.70;;;;;;5079703;28;20222;-92
2021/06/15 03:31:42;;;;;;;7.20;2.67;;;15.00;80.70;;;;;;5079638;28;20195;-92
2021/06/15 03:34:10;;;;;;;17.52;3.30;;;15.00;80.70;;;;;;5080282;28;20198;-94
2021/06/15 03:36:38;;;;;;;12.88;3.15;;;15.00;80.50;;;;;;5077857;28;20198;-94
2021/06/15 03:39:05;;;;;;;11.07;3.60;;;15.00;80.50;;;;;;5077092;28;20217;-95
2021/06/15 03:41:33;;;;;;;12.00;3.67;;;15.00;80.50;;;;;;5077339;28;20177;-94
2021/06/15 03:44:01;;;;;;;11.37;3.47;;;14.90;80.60;;;;;;5077983;28;20175;-94
2021/06/15 03:46:30;;;;;;;14.53;3.43;;;14.90;80.90;;;;;;5077067;28;20266;-94
2021/06/15 03:48:57;;;;;;;17.57;3.97;;;14.80;81.10;;;;;;5076151;28;20203;-94
2021/06/15 03:51:28;;;;;;;13.60;3.93;;;14.90;80.90;;;;;;5075737;28;20175;-94
2021/06/15 03:54:06;;;;;;;9.80;3.90;;;14.90;80.80;;;;;;5075795;28;20167;-94
2021/06/15 03:56:37;;;;;;;14.47;3.80;;;14.90;80.80;;;;;;5075849;28;20175;-94
2021/06/15 03:59:06;;;;;;;11.20;3.10;;;14.90;80.90;;;;;;5076499;28;20266;-94
2021/06/15 04:01:35;;;;;;;12.80;3.43;;;14.90;80.80;;;;;;5077424;28;20175;-94
2021/06/15 04:04:07;;;;;;;10.47;2.83;;;14.90;80.50;;;;;;5077735;28;20167;-94
2021/06/15 04:06:39;;;;;;;12.17;2.73;;;14.90;80.60;;;;;;5077501;28;20239;-94
2021/06/15 04:09:06;;;;;;;12.43;2.97;;;15.00;80.50;;;;;;5079010;28;20206;-94
2021/06/15 04:11:35;;;;;;;14.50;3.53;;;14.90;80.40;;;;;;5079110;28;20602;-94
2021/06/15 04:14:04;;;;;;;17.73;3.80;;;14.90;80.40;;;;;;5079698;28;20163;-95
2021/06/15 04:16:30;;;;;;;14.37;3.07;;;14.80;80.70;;;;;;5077725;28;20178;-94
2021/06/15 04:18:59;;;;;;;14.43;3.33;;;14.90;80.60;;;;;;5073994;28;20254;-94
2021/06/15 04:21:25;;;;;;;12.97;3.70;;;14.90;80.80;;;;;;5075032;28;20176;-94
2021/06/15 04:24:00;;;;;;;11.40;3.17;;;14.90;80.70;;;;;;5075824;28;20179;-94
2021/06/15 04:26:26;;;;;;;11.30;3.40;;;14.90;80.40;;;;;;5075888;28;20205;-92
2021/06/15 04:28:52;;;;;;;15.60;4.17;;;15.00;80.60;;;;;;5076259;28;20218;-94
2021/06/15 04:31:22;;;;;;;14.23;3.60;;;15.00;80.40;;;;;;5076987;28;20191;-94
2021/06/15 04:33:51;;;;;;;12.73;3.10;;;14.90;80.60;;;;;;5075983;28;20154;-94
2021/06/15 04:36:18;;;;;;;12.07;3.20;;;14.90;80.50;;;;;;5078799;28;20171;-94
2021/06/15 04:38:47;;;;;;;12.43;3.60;;;14.90;80.40;;;;;;5079866;28;20203;-94
2021/06/15 04:41:22;;;;;;;18.20;4.23;;;14.90;80.90;;;;;;5079040;28;20270;-94
2021/06/15 04:44:12;;;;;;;13.97;3.40;;;14.80;81.70;;;;;;5078281;28;20224;-94
2021/06/15 04:47:04;;;;;;;13.60;3.20;;;14.60;82.60;;;;;;5076764;28;20170;-94
2021/06/15 04:49:44;;;;;;;15.97;3.93;;;14.50;83.10;;;;;;5071281;28;20229;-94
2021/06/15 04:52:13;;;;;;;19.77;3.53;;;14.50;83.30;;;;;;5080045;28;20589;-93
2021/06/15 04:54:41;;;;;;;17.50;3.50;;;14.50;83.20;;;;;;5079227;28;20172;-94
2021/06/15 04:57:13;;;;;;;14.57;3.50;;;14.60;83.20;;;;;;5079970;28;20167;-94
2021/06/15 04:59:42;;;;;;;19.37;4.07;;;14.60;82.90;;;;;;5080433;28;20310;-94
2021/06/15 05:02:08;;;;;;;14.87;3.80;;;14.70;82.60;;;;;;5079911;28;20199;-94
2021/06/15 05:04:37;;;;;;;14.37;3.80;;;14.80;82.40;;;;;;5079953;28;20179;-94
2021/06/15 05:07:03;;;;;;;16.37;4.27;;;14.90;82.10;;;;;;5081105;28;20187;-94
2021/06/15 05:09:33;;;;;;;11.97;3.17;;;14.90;82.00;;;;;;5080179;28;20244;-94
2021/06/15 05:12:00;;;;;;;17.10;3.70;;;14.90;81.70;;;;;;5080770;28;20207;-94
2021/06/15 05:14:28;;;;;;;16.10;3.67;;;15.00;81.60;;;;;;5080391;28;20180;-94
2021/06/15 05:16:55;;;;;;;12.23;3.73;;;15.10;81.40;;;;;;5081258;28;20239;-94
2021/06/15 05:19:24;;;;;;;16.80;3.33;;;15.10;81.10;;;;;;5081074;28;20245;-95
2021/06/15 05:22:04;;;;;;;26.10;3.93;;;15.20;80.70;;;;;;5080098;28;20172;-94
2021/06/15 05:24:58;;;;;;;9.43;3.20;;;15.20;80.80;;;;;;5080177;28;20243;-94
2021/06/15 05:27:30;;;;;;;13.00;3.63;;;15.20;80.80;;;;;;5080190;28;20186;-94
2021/06/15 05:29:56;;;;;;;11.23;3.53;;;15.20;80.80;;;;;;5079849;28;20210;-94
2021/06/15 05:32:22;;;;;;;13.37;3.73;;;15.20;80.70;;;;;;5080073;28;20195;-94
2021/06/15 05:34:48;;;;;;;17.97;3.53;;;15.10;81.20;;;;;;5079095;28;20179;-94
2021/06/15 05:37:15;;;;;;;17.63;3.83;;;15.20;81.10;;;;;;5078754;28;20578;-94
2021/06/15 05:39:41;;;;;;;22.73;4.30;;;15.20;80.70;;;;;;5078173;28;20204;-94
2021/06/15 05:42:07;;;;;;;13.07;3.23;;;15.30;80.70;;;;;;5078293;28;20198;-94
2021/06/15 05:44:35;;;;;;;13.60;3.27;;;15.30;80.20;;;;;;5078531;28;20270;-94
2021/06/15 05:47:01;;;;;;;23.23;3.47;;;15.40;80.10;;;;;;5076059;28;20635;-94
2021/06/15 05:49:28;;;;;;;14.40;3.50;;;15.50;80.00;;;;;;5076165;28;20302;-94
2021/06/15 05:51:59;;;;;;;12.90;3.10;;;15.50;79.60;;;;;;5077517;28;20631;-94
2021/06/15 05:54:25;;;;;;;14.17;3.73;;;15.60;79.30;;;;;;5076237;28;20246;-94
2021/06/15 05:56:50;;;;;;;20.47;3.23;;;15.60;78.60;;;;;;5077716;28;20187;-94
2021/06/15 05:59:16;;;;;;;14.43;3.47;;;15.70;78.20;;;;;;5081053;28;20184;-94
2021/06/15 06:01:41;;;;;;;14.45;3.10;;;15.80;78.60;;;;;;5081137;28;20207;-94
2021/06/15 06:04:10;;;;;;;12.73;3.05;;;15.90;77.70;;;;;;5076494;28;20183;-94
2021/06/15 06:09:20;;;;;;;15.47;3.30;;;15.70;77.30;;;;;;5095439;28;20225;-94
2021/06/15 06:11:46;;;;;;;10.40;3.03;;;15.80;77.50;;;;;;5076913;28;20239;-94
2021/06/15 06:14:12;;;;;;;10.75;2.88;;;15.80;76.80;;;;;;5076773;28;20171;-94
2021/06/15 06:16:42;;;;;;;11.63;2.67;;;15.90;76.60;;;;;;5078366;28;20171;-94
2021/06/15 06:19:08;;;;;;;12.73;2.97;;;16.00;76.50;;;;;;5079112;28;20214;-94
2021/06/15 06:21:35;;;;;;;13.23;2.72;;;16.00;76.10;;;;;;5076596;28;20183;-93
2021/06/15 06:24:03;;;;;;;14.17;2.80;;;16.20;76.20;;;;;;5076765;28;20183;-94
2021/06/15 06:26:29;;;;;;;21.50;3.55;;;16.20;75.30;;;;;;5077469;28;20674;-94
2021/06/15 06:28:55;;;;;;;9.27;2.47;;;16.20;74.90;;;;;;5090358;22;20266;-89
2021/06/15 06:31:21;;;;;;;8.32;2.50;;;16.30;74.60;;;;;;5075751;28;20168;-89
2021/06/15 06:33:47;;;;;;;11.38;2.55;;;16.30;74.20;;;;;;5058588;28;20643;-89
2021/06/15 06:36:13;;;;;;;10.52;2.70;;;16.40;73.90;;;;;;5074986;28;20186;-89
2021/06/15 06:38:39;;;;;;;14.18;3.00;;;16.50;73.60;;;;;;5074847;28;20608;-88
2021/06/15 06:41:05;;;;;;;12.73;2.63;;;16.60;73.50;;;;;;5057356;28;20269;-90
2021/06/15 06:43:31;;;;;;;15.27;3.08;;;16.70;73.10;;;;;;5056789;28;20639;-89
2021/06/15 06:45:56;;;;;;;18.77;3.63;;;16.80;72.00;;;;;;5074370;28;20579;-90
2021/06/15 06:48:22;;;;;;;14.20;2.97;;;16.80;72.20;;;;;;5056237;28;20210;-89
2021/06/15 06:50:48;;;;;;;11.77;2.80;;;16.90;73.00;;;;;;5056925;28;20191;-89
2021/06/15 06:53:14;;;;;;;9.68;2.50;;;16.80;72.40;;;;;;5056508;28;20577;-89
2021/06/15 06:55:39;;;;;;;8.93;2.40;;;16.80;70.40;;;;;;5057272;28;20180;-90
2021/06/15 06:58:05;;;;;;;8.95;2.67;;;16.90;71.50;;;;;;5073819;28;20681;-89
2021/06/15 07:00:31;;;;;;;10.20;2.13;;;17.00;71.00;;;;;;5056182;28;20561;-89
2021/06/15 07:02:57;;;;;;;14.90;2.90;;;17.00;71.40;;;;;;5056313;28;20175;-89
2021/06/15 07:05:23;;;;;;;10.75;2.30;;;17.00;69.80;;;;;;5056213;28;20175;-90
2021/06/15 07:07:51;;;;;;;7.20;1.60;;;17.20;69.80;;;;;;5056309;28;20613;-89
2021/06/15 07:10:17;;;;;;;12.15;2.40;;;17.20;69.60;;;;;;5056544;28;20202;-90
2021/06/15 07:12:43;;;;;;;12.27;2.75;;;17.20;69.70;;;;;;5073924;28;20163;-90
2021/06/15 07:15:09;;;;;;;5.25;1.73;;;17.40;67.70;;;;;;5074046;28;20542;-90
2021/06/15 07:17:35;;;;;;;7.82;2.00;;;17.50;68.70;;;;;;5056079;28;20181;-89
2021/06/15 07:20:00;;;;;;;9.73;2.45;;;17.50;68.50;;;;;;5056132;28;20290;-89
2021/06/15 07:22:26;;;;;;;9.68;2.85;;;17.60;68.00;;;;;;5073835;28;20185;-89
2021/06/15 07:24:51;;;;;;;8.63;2.33;;;17.70;67.80;;;;;;5056046;28;20182;-89
2021/06/15 07:27:17;;;;;;;10.07;2.33;;;17.70;67.30;;;;;;5073732;28;20179;-89
2021/06/15 07:29:42;;;;;;;8.05;2.00;;;17.70;68.20;;;;;;5073534;28;20207;-89
2021/06/15 07:32:08;;;;;;;7.82;1.92;;;17.80;67.00;;;;;;5055882;28;20649;-89
2021/06/15 07:34:34;;;;;;;6.82;1.70;;;18.00;66.40;;;;;;5055771;28;20205;-89
2021/06/15 07:37:00;;;;;;;4.43;1.63;;;18.10;65.80;;;;;;5055696;28;20544;-89
2021/06/15 07:39:26;;;;;;;9.85;2.63;;;18.10;63.60;;;;;;5055684;28;20203;-89
2021/06/15 07:41:51;;;;;;;8.63;1.77;;;18.10;64.20;;;;;;5055745;28;20181;-90
2021/06/15 07:44:17;;;;;;;7.63;1.70;;;17.90;64.00;;;;;;5055445;28;20650;-89
2021/06/15 07:46:43;;;;;;;5.90;1.70;;;17.90;64.50;;;;;;5055694;28;20224;-89
2021/06/15 07:49:09;;;;;;;12.57;2.63;;;17.90;64.80;;;;;;5055311;28;20290;-89
2021/06/15 07:51:38;;;;;;;6.15;2.03;;;17.90;66.10;;;;;;5055444;28;20251;-89
2021/06/15 07:54:05;;;;;;;8.77;1.92;;;18.00;65.50;;;;;;5073828;28;20171;-90
2021/06/15 07:56:30;;;;;;;7.85;2.22;;;18.00;64.40;;;;;;5055292;28;20172;-90
2021/06/15 07:58:56;;;;;;;8.68;2.22;;;17.90;64.50;;;;;;5058062;28;20214;-89
2021/06/15 08:01:22;;;;;;;9.15;1.90;;;17.90;64.00;;;;;;5056262;28;20174;-89
2021/06/15 08:03:48;;;;;;;18.27;2.30;;;17.90;64.00;;;;;;5055471;28;20172;-89
2021/06/15 08:06:13;;;;;;;5.88;1.70;;;17.90;65.30;;;;;;5073605;28;20206;-88
2021/06/15 08:08:39;;;;;;;8.02;1.95;;;18.00;66.60;;;;;;5055455;28;20203;-89
2021/06/15 08:11:05;;;;;;;10.07;1.95;;;18.10;65.90;;;;;;5058514;28;20171;-88
2021/06/15 08:13:31;;;;;;;9.23;2.63;;;17.90;66.00;;;;;;5059596;28;20175;-89
2021/06/15 08:15:57;;;;;;;13.32;2.25;;;18.00;65.20;;;;;;5059481;28;20178;-89
2021/06/15 08:18:24;;;;;;;12.27;2.70;;;18.10;65.40;;;;;;5059240;28;20191;-89
2021/06/15 08:20:51;;;;;;;13.35;2.88;;;18.20;65.60;;;;;;5077237;28;20183;-89
2021/06/15 08:23:17;;;;;;;8.18;1.95;;;18.20;63.80;;;;;;5059192;28;20202;-89
2021/06/15 08:25:46;;;;;;;9.32;2.22;;;18.20;65.00;;;;;;5059482;28;20180;-89
2021/06/15 08:28:12;;;;;;;5.85;1.88;;;18.30;65.20;;;;;;5059208;28;20222;-89
2021/06/15 08:30:38;;;;;;;5.45;1.95;;;18.60;63.40;;;;;;5060329;28;20167;-88
2021/06/15 08:33:04;;;;;;;6.72;1.80;;;18.20;62.40;;;;;;5059715;28;20700;-88
2021/06/15 08:35:29;;;;;;;10.30;2.45;;;18.20;65.10;;;;;;5060113;28;20172;-89
2021/06/15 08:37:56;;;;;;;18.00;2.63;;;18.30;65.30;;;;;;5058988;28;20201;-89
2021/06/15 08:40:22;;;;;;;9.13;2.08;;;18.50;62.20;;;;;;5059207;28;20182;-89
2021/06/15 08:42:47;;;;;;;10.13;2.10;;;18.50;62.60;;;;;;5059138;28;20270;-88
2021/06/15 08:45:15;;;;;;;9.30;2.03;;;18.40;64.20;;;;;;5059043;28;20202;-89
2021/06/15 08:47:45;;;;;;;8.50;2.25;;;18.30;65.10;;;;;;5059729;28;20179;-88
2021/06/15 08:50:14;;;;;;;5.82;1.95;;;18.40;63.40;;;;;;5076815;28;20182;-88
2021/06/15 08:52:39;;;;;;;9.10;2.47;;;18.60;64.60;;;;;;5058887;28;20526;-88
2021/06/15 08:55:06;;;;;;;10.77;2.30;;;19.00;62.70;;;;;;5076545;28;20163;-87
2021/06/15 08:57:35;;;;;;;6.90;2.08;;;19.30;62.00;;;;;;5076843;28;20160;-87
2021/06/15 09:00:02;;;;;;;7.07;2.00;;;19.20;57.90;;;;;;5058550;28;20206;-87
2021/06/15 09:02:28;;;;;;;8.32;2.13;;;19.20;60.20;;;;;;5058507;28;20227;-87
2021/06/15 09:04:54;;;;;;;10.07;2.30;;;19.10;59.10;;;;;;5058508;28;20265;-87
2021/06/15 09:07:20;;;;;;;7.90;1.92;;;19.00;60.30;;;;;;5058625;28;20280;-87
2021/06/15 09:09:49;;;;;;;9.13;2.65;;;19.20;60.90;;;;;;5058212;28;20199;-87
2021/06/15 09:12:16;;;;;;;5.05;2.20;;;19.20;61.00;;;;;;5058431;28;20643;-87
2021/06/15 09:14:47;;;;;;;6.50;2.08;;;19.30;61.60;;;;;;5076210;28;20550;-87
2021/06/15 09:17:26;;;;;;;7.93;2.42;;;19.40;60.60;;;;;;5058274;28;20254;-87
2021/06/15 09:19:52;;;;;;;8.77;2.40;;;19.40;60.00;;;;;;5058301;28;20607;-87
2021/06/15 09:22:34;;;;;;;7.28;1.88;;;19.60;59.60;;;;;;5075931;28;20164;-87
2021/06/15 09:25:02;;;;;;;7.70;2.20;;;19.70;59.50;;;;;;5076057;28;20238;-87
2021/06/15 09:27:35;;;;;;;5.95;2.17;;;19.60;59.60;;;;;;5058025;28;20179;-87
2021/06/15 09:30:05;;;;;;;11.95;2.75;;;19.80;58.80;;;;;;5075899;28;20230;-87
2021/06/15 09:32:38;;;;;;;8.80;2.75;;;19.70;59.10;;;;;;5058226;28;20171;-88
2021/06/15 09:35:05;;;;;;;14.85;3.00;;;19.60;59.80;;;;;;5076658;28;20525;-90
2021/06/15 09:37:43;;;;;;;11.05;2.95;;;19.60;60.10;;;;;;5059057;28;20225;-87
2021/06/15 09:40:46;;;;;;;7.35;2.22;;;19.70;61.00;;;;;;5057782;28;20213;-89
2021/06/15 09:43:14;;;;;;;5.78;2.03;;;20.20;58.70;;;;;;5055986;28;20272;-88
2021/06/15 09:45:41;;;;;;;9.77;2.90;;;20.10;58.30;;;;;;5075927;28;20171;-88
2021/06/15 09:48:27;;;;;;;5.03;2.22;;;20.00;58.50;;;;;;5057849;28;20203;-89
2021/06/15 09:51:05;;;;;;;10.25;1.95;;;20.20;58.90;;;;;;5058419;28;20183;-87
2021/06/15 09:53:33;;;;;;;5.88;1.63;;;20.10;58.60;;;;;;5075679;28;20197;-87
2021/06/15 09:56:04;;;;;;;6.30;1.90;;;20.10;58.50;;;;;;5075514;28;20643;-87
2021/06/15 09:58:46;;;;;;;5.00;1.75;;;20.20;58.60;;;;;;5057658;28;20659;-88
2021/06/15 10:01:28;;;;;;;4.97;1.50;;;20.70;56.20;;;;;;5057898;28;20667;-87
2021/06/15 10:04:32;;;;;;;5.38;1.63;;;21.00;51.20;;;;;;5057939;28;20175;-88
2021/06/15 10:06:59;;;;;;;5.60;1.58;;;20.60;55.10;;;;;;4978281;28;20614;-88
2021/06/15 10:09:37;;;;;;;6.22;1.90;;;20.70;55.20;;;;;;4993904;28;20202;-87
2021/06/15 10:12:05;;;;;;;5.88;1.60;;;20.40;55.50;;;;;;5022306;28;20186;-88
2021/06/15 10:14:31;;;;;;;7.00;1.63;;;20.50;54.00;;;;;;5057246;28;20172;-87
2021/06/15 10:16:58;;;;;;;9.35;1.70;;;20.70;54.10;;;;;;5075319;28;20577;-87
2021/06/15 10:19:25;;;;;;;4.97;1.58;;;20.80;53.30;;;;;;5075210;28;20190;-88
2021/06/15 10:21:52;;;;;;;21.83;3.35;;;20.80;53.00;;;;;;5057374;28;20191;-89
2021/06/15 10:24:23;;;;;;;7.43;1.70;;;20.70;52.80;;;;;;5057248;28;20254;-86
2021/06/15 10:26:49;;;;;;;6.55;1.73;;;21.10;49.90;;;;;;5075060;28;20176;-89
2021/06/15 10:29:16;;;;;;;6.68;1.58;;;21.00;51.30;;;;;;5057032;28;20214;-88
2021/06/15 10:31:45;;;;;;;6.40;1.48;;;20.90;52.50;;;;;;5074822;28;20167;-88
2021/06/15 10:34:10;;;;;;;4.68;1.33;;;21.20;51.30;;;;;;5074351;28;20242;-87
2021/06/15 10:36:37;;;;;;;9.45;1.98;;;21.50;50.80;;;;;;5056783;28;20206;-87
2021/06/15 10:39:05;;;;;;;7.75;1.92;;;21.60;49.00;;;;;;5056699;28;20571;-87
2021/06/15 10:41:31;;;;;;;4.43;1.33;;;21.30;51.40;;;;;;5074621;28;20195;-87
2021/06/15 10:43:58;;;;;;;3.42;1.50;;;21.30;50.30;;;;;;5056772;28;20581;-87
2021/06/15 10:46:31;;;;;;;9.90;1.90;;;21.20;49.30;;;;;;5074732;28;20508;-87
2021/06/15 10:49:09;;;;;;;8.32;1.20;;;21.20;49.10;;;;;;5056533;28;20290;-87
2021/06/15 10:51:44;;;;;;;5.10;1.35;;;21.50;50.10;;;;;;5056429;28;20232;-86
2021/06/15 10:54:38;;;;;;;5.95;1.67;;;21.50;51.10;;;;;;5074369;28;20205;-87
2021/06/15 10:57:30;;;;;;;4.45;1.60;;;21.70;51.90;;;;;;5056481;28;20167;-87
2021/06/15 11:00:24;;;;;;;5.30;1.35;;;21.60;50.30;;;;;;5074305;28;20191;-87
2021/06/15 11:03:21;;;;;;;5.32;1.70;;;21.70;49.90;;;;;;5074215;28;20164;-88
2021/06/15 11:06:02;;;;;;;7.88;1.80;;;21.80;49.70;;;;;;5057216;28;20183;-89
2021/06/15 11:08:31;;;;;;;6.85;1.75;;;21.80;49.60;;;;;;5075145;28;20202;-88
2021/06/15 11:11:05;;;;;;;5.72;1.50;;;22.10;50.10;;;;;;5057639;28;20171;-88
2021/06/15 11:13:49;;;;;;;9.40;1.33;;;21.70;50.50;;;;;;5057657;28;20250;-88
2021/06/15 11:16:31;;;;;;;11.15;1.67;;;22.20;50.90;;;;;;5057406;28;20220;-88
2021/06/15 11:19:17;;;;;;;7.32;1.65;;;22.20;46.70;;;;;;5058025;28;20199;-89
2021/06/15 11:21:52;;;;;;;9.07;1.50;;;22.40;46.90;;;;;;5057298;28;20195;-89
2021/06/15 11:24:21;;;;;;;6.07;1.38;;;22.80;45.80;;;;;;5056713;28;20175;-86
2021/06/15 11:26:53;;;;;;;4.65;1.38;;;23.10;46.60;;;;;;5075457;28;20723;-88
2021/06/15 11:29:38;;;;;;;5.78;1.70;;;22.90;47.00;;;;;;5057081;28;20215;-89
2021/06/15 11:32:21;;;;;;;3.45;1.15;;;22.20;49.90;;;;;;5075538;28;20151;-89
2021/06/15 11:34:52;;;;;;;3.65;1.02;;;22.80;47.70;;;;;;5056806;28;20171;-89
2021/06/15 11:37:29;;;;;;;6.70;1.40;;;23.20;46.00;;;;;;5057369;28;20175;-89
2021/06/15 11:40:16;;;;;;;8.18;1.83;;;23.30;45.40;;;;;;5057345;28;20234;-89
2021/06/15 11:42:48;;;;;;;4.78;1.67;;;23.00;45.70;;;;;;5057139;28;20175;-89
2021/06/15 11:45:17;;;;;;;4.47;1.52;;;23.30;44.40;;;;;;5057337;28;20201;-89
2021/06/15 11:47:56;;;;;;;6.25;1.95;;;23.30;43.60;;;;;;5057301;28;20211;-90
2021/06/15 11:50:33;;;;;;;4.35;1.70;;;23.40;43.80;;;;;;5056938;28;20175;-90
2021/06/15 11:53:00;;;;;;;9.20;1.83;;;23.20;44.80;;;;;;5075264;28;20180;-90
2021/06/15 11:55:45;;;;;;;5.57;1.73;;;23.10;47.40;;;;;;5057218;28;20171;-89
2021/06/15 11:58:15;;;;;;;5.78;1.58;;;23.40;46.00;;;;;;5058258;28;20550;-90
2021/06/15 12:00:46;;;;;;;5.90;1.73;;;23.60;44.00;;;;;;5075389;28;20247;-90
2021/06/15 12:03:20;;;;;;;8.73;1.85;;;23.20;44.40;;;;;;5057293;28;20178;-90
2021/06/15 12:05:48;;;;;;;6.65;1.52;;;23.30;42.40;;;;;;5057368;28;20175;-90
2021/06/15 12:08:14;;;;;;;10.13;2.10;;;23.40;42.80;;;;;;5075129;28;20191;-90
2021/06/15 12:10:42;;;;;;;8.23;1.88;;;23.20;42.70;;;;;;5057233;28;20179;-90
2021/06/15 12:13:12;;;;;;;5.75;1.50;;;23.10;43.50;;;;;;5057220;28;20175;-89
2021/06/15 12:15:39;;;;;;;6.55;1.92;;;23.20;44.00;;;;;;5057069;28;20601;-89
2021/06/15 12:18:07;;;;;;;6.53;1.52;;;23.50;44.70;;;;;;5057266;28;20222;-89
2021/06/15 12:20:37;;;;;;;7.95;1.85;;;23.60;44.40;;;;;;5075184;28;20198;-89
2021/06/15 12:23:38;;;;;;;6.93;1.83;;;23.60;45.70;;;;;;5057231;28;20656;-90
2021/06/15 12:26:08;;;;;;;6.57;1.80;;;23.80;43.30;;;;;;5057050;28;20198;-90
2021/06/15 12:28:37;;;;;;;10.55;2.03;;;23.20;45.30;;;;;;5145906;22;20308;-85
2021/06/15 12:31:20;;;;;;;7.00;1.63;;;22.90;46.60;;;;;;5075070;28;20183;-85
2021/06/15 12:33:53;;;;;;;7.47;1.77;;;22.80;46.50;;;;;;5093101;28;20174;-86
2021/06/15 12:36:23;;;;;;;10.77;2.33;;;23.30;45.40;;;;;;5075039;28;20542;-86
2021/06/15 12:38:49;;;;;;;6.60;1.73;;;23.20;45.70;;;;;;5075131;28;20213;-86
2021/06/15 12:41:21;;;;;;;6.68;1.90;;;23.20;45.30;;;;;;5093038;28;20197;-87
2021/06/15 12:43:50;;;;;;;9.48;1.83;;;22.70;46.50;;;;;;5074972;28;20258;-86
2021/06/15 12:46:28;;;;;;;11.85;2.10;;;23.10;48.30;;;;;;5093066;28;20220;-86
2021/06/15 12:48:55;;;;;;;6.82;1.77;;;23.00;47.90;;;;;;5075301;28;20569;-87
2021/06/15 12:51:53;;;;;;;9.20;2.13;;;23.30;45.80;;;;;;5074893;28;20540;-87
2021/06/15 12:54:46;;;;;;;10.27;2.35;;;22.90;47.70;;;;;;5055823;28;20193;-87
2021/06/15 12:57:22;;;;;;;12.15;2.10;;;23.00;46.30;;;;;;5074909;28;20771;-87
2021/06/15 13:00:18;;;;;;;8.57;1.92;;;23.50;47.30;;;;;;5078655;28;20234;-87
2021/06/15 13:02:43;;;;;;;5.38;1.60;;;23.80;47.20;;;;;;5058602;28;20232;-88